»·PEaware :: FFT801 KMRY-KSAN

FFT801 :: KMRY-KSAN

FLIGHT INFORMATION

Flight Status: Arrived
Operator:
Frontier Airlines
More flights by this operator :: More flights under this callsign
Pilot: Evan H. (11904)
Aircraft: AIRBUS A320
(A320)
More flights by this aircraft type
Origin: KMRY Monterey Peninsula
United States
Destination: KSAN San Diego Intl-Lindbergh
United States
More flights between these airports :: More routes between these airports
Route: +MRY4 SERFR MCKEY LAX COMIX1
File this flight plan on PilotEdge
Remarks: PBN / A1B1C1D1O1S1 DOF / 180512 REG / N320SB EET / KZLA0014 OPR / FFT PER / C RMK / TCAS SIMBRIEF
Altitude:
(Current/Filed)
39,000ft
Speed:
(Current/Filed)
430kts
Departed: 11-May-18 07:29 PM
Arrived: 11-May-18 08:30 PM
Distance/Time
Traveled:
326nm/1:01
Distance/Time
To Go:
Arrived

Flight Plot

Page will automatically refresh every two minutes.

Flight plan parsing failed; only flown route is shown


Map Options




Map Legend


Flown Route
Filed Route
Departure Airport
Arrival Airport
Navaid (VOR, NDB)
Fix

Horizontal Profiles

Position Reports

Time Latitude Longitude Heading Altitude Ground
Speed
11-May-18 18:47 36.587144 -121.848460 292 219ft 0kts
11-May-18 18:48 36.587144 -121.848460 292 219ft 0kts
11-May-18 18:49 36.587144 -121.848460 292 219ft 0kts
11-May-18 18:50 36.587144 -121.848460 292 219ft 0kts
11-May-18 18:51 36.587144 -121.848460 292 219ft 0kts
11-May-18 18:52 36.587144 -121.848460 292 219ft 0kts
11-May-18 18:53 36.587144 -121.848460 292 219ft 0kts
11-May-18 18:54 36.587144 -121.848460 292 219ft 0kts
11-May-18 18:55 36.587144 -121.848460 292 219ft 0kts
11-May-18 18:56 36.587144 -121.848460 292 219ft 0kts
11-May-18 18:57 36.587144 -121.848460 292 219ft 0kts
11-May-18 18:58 36.587144 -121.848460 292 219ft 0kts
11-May-18 18:59 36.587144 -121.848460 292 219ft 0kts
11-May-18 19:00 36.587144 -121.848460 292 219ft 0kts
11-May-18 19:01 36.587144 -121.848460 292 219ft 0kts
11-May-18 19:02 36.587144 -121.848460 292 219ft 0kts
11-May-18 19:03 36.587144 -121.848460 292 219ft 0kts
11-May-18 19:04 36.587144 -121.848460 292 219ft 0kts
11-May-18 19:05 36.587144 -121.848460 292 219ft 0kts
11-May-18 19:06 36.587144 -121.848460 292 219ft 0kts
11-May-18 19:07 36.587144 -121.848460 292 219ft 0kts
11-May-18 19:08 36.587144 -121.848460 292 219ft 0kts
11-May-18 19:09 36.587144 -121.848460 292 219ft 0kts
11-May-18 19:10 36.587144 -121.848460 292 219ft 0kts
11-May-18 19:11 36.587145 -121.848461 292 219ft 0kts
11-May-18 19:12 36.587145 -121.848461 292 219ft 0kts
11-May-18 19:13 36.587145 -121.848461 292 219ft 0kts
11-May-18 19:14 36.587145 -121.848462 292 219ft 0kts
11-May-18 19:15 36.587145 -121.848462 292 219ft 0kts
11-May-18 19:16 36.587145 -121.848463 292 219ft 0kts
11-May-18 19:17 36.587145 -121.848463 292 219ft 0kts
11-May-18 19:18 36.587145 -121.848463 292 219ft 0kts
11-May-18 19:19 36.587146 -121.848464 292 219ft 0kts
11-May-18 19:20 36.587146 -121.848464 292 219ft 0kts
11-May-18 19:21 36.587146 -121.848465 292 219ft 0kts
11-May-18 19:22 36.587146 -121.848465 292 219ft 0kts
11-May-18 19:23 36.587146 -121.848466 292 219ft 0kts
11-May-18 19:24 36.587295 -121.847872 108 219ft 15kts
11-May-18 19:25 36.584991 -121.841230 113 219ft 23kts
11-May-18 19:26 36.582831 -121.834533 90 219ft 13kts
11-May-18 19:27 36.582846 -121.834163 85 219ft 0kts
11-May-18 19:28 36.583463 -121.833920 298 219ft 6kts
11-May-18 19:29 36.590413 -121.854047 291 545ft 165kts
11-May-18 19:30 36.625236 -121.897560 357 3560ft 245kts
11-May-18 19:31 36.696003 -121.926426 341 7650ft 271kts
11-May-18 19:32 36.764302 -121.903573 56 11152ft 310kts
11-May-18 19:33 36.729283 -121.806070 156 13697ft 370kts
11-May-18 19:34 36.633671 -121.747779 151 16508ft 395kts
11-May-18 19:35 36.535291 -121.679747 153 19011ft 414kts
11-May-18 19:36 36.432512 -121.610216 153 21355ft 428kts
11-May-18 19:37 36.326215 -121.538399 154 23451ft 440kts
11-May-18 19:38 36.217368 -121.464996 155 25355ft 451kts
11-May-18 19:39 36.105467 -121.389807 155 27119ft 462kts
11-May-18 19:40 35.987515 -121.325467 163 28727ft 467kts
11-May-18 19:41 35.866019 -121.267132 162 30432ft 473kts
11-May-18 19:42 35.741922 -121.207384 162 31782ft 482kts
11-May-18 19:43 35.617705 -121.147705 162 33576ft 477kts
11-May-18 19:44 35.496034 -121.084208 149 35105ft 481kts
11-May-18 19:45 35.411389 -120.956546 124 36383ft 486kts
11-May-18 19:46 35.334409 -120.820554 126 37476ft 484kts
11-May-18 19:47 35.258013 -120.685622 126 38409ft 483kts
11-May-18 19:48 35.180962 -120.550879 126 38913ft 478kts
11-May-18 19:49 35.117929 -120.440623 126 38913ft 481kts
11-May-18 19:50 35.041053 -120.306861 126 38918ft 480kts
11-May-18 19:51 34.968204 -120.180525 126 38953ft 479kts
11-May-18 19:52 34.906190 -120.073293 126 38952ft 478kts
11-May-18 19:53 34.829342 -119.940994 126 38945ft 476kts
11-May-18 19:54 34.753018 -119.809914 126 38924ft 475kts
11-May-18 19:55 34.676749 -119.679522 126 38923ft 472kts
11-May-18 19:56 34.600347 -119.549332 127 38860ft 472kts
11-May-18 19:57 34.529335 -119.428784 127 38856ft 472kts
11-May-18 19:58 34.457464 -119.307166 127 38930ft 473kts
11-May-18 19:59 34.389236 -119.192091 127 38945ft 474kts
11-May-18 20:00 34.312401 -119.062978 127 38945ft 473kts
11-May-18 20:01 34.235589 -118.934319 127 38938ft 472kts
11-May-18 20:02 34.159451 -118.807276 127 38904ft 472kts
11-May-18 20:03 34.090463 -118.692524 127 38921ft 471kts
11-May-18 20:04 34.016262 -118.569529 127 38915ft 470kts
11-May-18 20:05 33.949691 -118.459511 128 36491ft 470kts
11-May-18 20:06 33.871312 -118.351752 136 33476ft 467kts
11-May-18 20:07 33.786832 -118.242900 136 31308ft 447kts
11-May-18 20:08 33.704425 -118.134716 136 28960ft 432kts
11-May-18 20:09 33.633856 -118.042249 136 26895ft 419kts
11-May-18 20:10 33.556310 -117.940877 137 24644ft 403kts
11-May-18 20:11 33.478126 -117.849327 140 22566ft 384kts
11-May-18 20:12 33.403476 -117.760548 138 20629ft 375kts
11-May-18 20:13 33.330738 -117.671941 138 18836ft 370kts
11-May-18 20:14 33.258665 -117.585917 146 17160ft 360kts
11-May-18 20:15 33.177556 -117.517885 149 15577ft 352kts
11-May-18 20:16 33.097903 -117.450997 149 13852ft 347kts
11-May-18 20:17 33.021543 -117.387273 148 12223ft 330kts
11-May-18 20:18 32.955189 -117.331529 148 10724ft 317kts
11-May-18 20:19 32.887977 -117.275385 149 9761ft 283kts
11-May-18 20:20 32.824889 -117.222960 147 8366ft 276kts
11-May-18 20:21 32.796671 -117.142449 105 7383ft 255kts
11-May-18 20:22 32.778490 -117.062499 106 6017ft 247kts
11-May-18 20:23 32.760804 -116.990226 107 5563ft 212kts
11-May-18 20:24 32.721377 -116.954075 189 4614ft 178kts
11-May-18 20:25 32.688269 -116.989868 260 3539ft 168kts
11-May-18 20:26 32.697904 -117.042790 283 2645ft 161kts
11-May-18 20:27 32.710654 -117.095185 283 1871ft 154kts
11-May-18 20:28 32.722103 -117.142381 281 821ft 141kts
11-May-18 20:29 32.732816 -117.186404 283 30ft 130kts
11-May-18 20:30 32.734008 -117.195220 260 29ft 6kts
11-May-18 20:31 32.734001 -117.195281 262 29ft 0kts
11-May-18 20:32 32.734150 -117.196354 275 29ft 10kts
11-May-18 20:33 32.733354 -117.197641 279 29ft 1kts
11-May-18 20:34 32.733362 -117.197691 280 29ft 0kts
11-May-18 20:35 32.733362 -117.197691 280 29ft 0kts
11-May-18 20:36 32.733362 -117.197691 280 29ft 0kts
11-May-18 20:37 32.733362 -117.197691 280 29ft 0kts
11-May-18 20:38 32.733362 -117.197691 280 29ft 0kts
11-May-18 20:39 32.733362 -117.197691 280 29ft 0kts
11-May-18 20:40 32.733362 -117.197691 280 29ft 0kts
11-May-18 20:41 32.733362 -117.197691 280 29ft 0kts
11-May-18 20:42 32.733362 -117.197691 280 29ft 0kts

Navigation Log

Ident Type
Flight plan parsing failed, navigation log unavailable